Terminal Aerodrome Forecast
Issued by NWS

Home | Current Version | Previous Version | Text Only | Print | Product List | Glossary On
Versions: 1 2 3 4 5 6 7 8 9 10
000
FTUS43 KJKL 271129
TAFSME
TAF
KSME 271129Z 2712/2812 36007KT 6SM -SN SCT035
     FM271400 01007KT P6SM BKN050
     FM271600 03005KT P6SM BKN050=

USA.gov is the U.S. government's official web portal to all federal, state and local government web resources and services.